Time Latitude Longitude Accuracy (66% radius in meters) Altitude (meters) Speed (km/hour) Bearing (degrees) Battery (%) GPS flag
11:18:49 57.203981 60.118988 4.2880001068115 323.15075683594 2.4900000095367 29 52 1 delete
11:18:46 57.203912 60.118958 3.2160000801086 323.46856689453 2.6400001049042 40.099998474121 52 1 delete
11:18:42 57.203838 60.118842 3.2160000801086 323.45971679688 2.289999961853 65.400001525879 52 1 delete
11:18:38 57.203814 60.118712 3.2160000801086 322.58862304688 2.4300000667572 95.5 52 1 delete
11:18:37 57.203818 60.118675 3.2160000801086 322.74224853516 2.4800000190735 103.80000305176 52 1 delete
11:18:32 57.203859 60.118502 3.2160000801086 321.02264404297 2.5299999713898 102.40000152588 52 1 delete
11:18:28 57.203868 60.118370 3.2160000801086 321.59161376953 2.5499999523163 118.59999847412 52 1 delete
11:18:26 57.203880 60.118317 3.2160000801086 322.31457519531 2.5599999427795 128.39999389648 52 1 delete
11:18:18 57.203898 60.118221 3.2160000801086 321.81774902344 0 0 52 1 delete
11:18:15 57.203929 60.118166 3.2160000801086 321.95043945312 2.5299999713898 134.89999389648 52 1 delete
11:18:10 57.204007 60.118036 3.2160000801086 320.291015625 2.7699999809265 137.80000305176 52 1 delete
11:18:07 57.204064 60.117941 3.2160000801086 319.30877685547 3.6199998855591 143.5 52 1 delete
11:18:06 57.204091 60.117902 3.2160000801086 319.31408691406 3.6800000667572 141.10000610352 52 1 delete
11:18:03 57.204166 60.117772 3.2160000801086 318.87982177734 3.6800000667572 140.39999389648 52 1 delete
11:18:00 57.204245 60.117638 3.2160000801086 318.12951660156 3.7200000286102 145.69999694824 52 1 delete
11:17:57 57.204354 60.117525 4.2880001068115 316.14514160156 3.6099998950958 148.80000305176 52 1 delete
11:17:56 57.204392 60.117490 4.2880001068115 316.16528320312 3.5799999237061 155 52 1 delete
11:17:54 57.204472 60.117425 4.2880001068115 314.68200683594 3.3800001144409 157.80000305176 52 1 delete
11:17:51 57.204597 60.117371 5.3600001335144 314.466796875 3.2400000095367 170 52 1 delete
11:17:48 57.204721 60.117382 5.3600001335144 314.22021484375 3.0499999523163 188.19999694824 52 1 delete
11:17:46 57.204808 60.117422 5.3600001335144 314.66198730469 2.9000000953674 191.10000610352 52 1 delete
11:17:45 57.204848 60.117442 5.3600001335144 313.69677734375 2.8299999237061 191.69999694824 52 1 delete
11:17:42 57.204959 60.117513 5.3600001335144 313.47253417969 2.539999961853 189.19999694824 52 1 delete
11:17:39 57.205052 60.117566 5.3600001335144 312.69458007812 2.4000000953674 173.80000305176 52 1 delete
11:17:36 57.205133 60.117577 6.4320001602173 313.07696533203 2.3699998855591 145.60000610352 52 1 delete
11:17:34 57.205163 60.117556 6.4320001602173 311.93884277344 2.4400000572205 129.5 52 1 delete
11:17:27 57.205232 60.117437 4.2880001068115 313.35144042969 2.6099998950958 111.59999847412 52 1 delete
11:17:25 57.205253 60.117397 4.2880001068115 312.9287109375 2.75 122.59999847412 52 1 delete
11:17:22 57.205315 60.117342 3.2160000801086 312.66882324219 2.7300000190735 154.80000305176 52 1 delete
11:17:19 57.205406 60.117311 4.2880001068115 311.94519042969 2.6300001144409 152.60000610352 52 1 delete
11:17:15 57.205520 60.117256 4.2880001068115 309.25061035156 2.1900000572205 141.30000305176 52 1 delete
11:17:11 57.205622 60.117168 4.2880001068115 307.66064453125 1.8500000238419 153.69999694824 52 1 delete
11:17:07 57.205733 60.117102 5.3600001335144 309.08819580078 1.7999999523163 160.60000610352 52 1 delete
11:17:05 57.205787 60.117077 5.3600001335144 309.91497802734 1.7599999904633 166.5 52 1 delete
11:17:04 57.205821 60.117069 4.2880001068115 310.31909179688 1.7300000190735 167.19999694824 52 1 delete
11:17:03 57.206023 60.117070 5.3600001335144 310.33483886719 1.7000000476837 168.60000610352 52 1 delete
11:17:00 57.206157 60.117072 4.2880001068115 313.21362304688 1.6000000238419 180.80000305176 52 1 delete
11:16:57 57.206283 60.117101 5.3600001335144 317.45526123047 1.5299999713898 185.69999694824 52 1 delete
11:16:54 57.206389 60.117134 4.2880001068115 319.685546875 1.5299999713898 175.30000305176 52 1 delete
11:16:50 57.206493 60.117150 4.2880001068115 319.94750976562 1.5900000333786 182.5 52 1 delete
11:16:45 57.206603 60.117193 4.2880001068115 322.50610351562 1.6900000572205 169 52 1 delete
11:16:44 57.206622 60.117192 4.2880001068115 322.80383300781 1.6900000572205 157.10000610352 52 1 delete
11:16:35 57.206680 60.117094 3.2160000801086 322.29638671875 1.7599999904633 51.299999237061 52 1 delete
11:16:34 57.206675 60.117074 3.2160000801086 323.08422851562 1.7599999904633 45 52 1 delete
11:16:27 57.206606 60.116997 4.2880001068115 321.97448730469 1.8099999427795 26.200000762939 52 1 delete
11:16:24 57.206569 60.116993 4.2880001068115 321.86047363281 1.8300000429153 18.89999961853 52 1 delete
11:16:20 57.206514 60.116972 4.2880001068115 320.09008789062 1.8999999761581 39.400001525879 52 1 delete
11:16:13 57.206486 60.116850 4.2880001068115 318.10302734375 2.0999999046326 86 52 1 delete
11:16:10 57.206508 60.116802 3.2160000801086 316.59814453125 2.0999999046326 105.5 52 1 delete
11:16:03 57.206536 60.116695 4.2880001068115 315.15100097656 2.0099999904633 72.300003051758 52 1 delete